Stormwatcher's Retreat Logo




                  Temp     Hi    Low   Out    Dew  Wind  Wind   Wind    Hi    Hi   Wind   Heat    THW   THSW                Rain  Solar   Solar Hi Solar   UV    UV    Hi     Heat    Cool    In     In    In     In     In   In Air          Wind  Wind    ISS   Arc.
  Date    Time     Out   Temp   Temp   Hum    Pt. Speed   Dir    Run Speed   Dir  Chill  Index  Index  Index   Bar    Rain  Rate   Rad.  Energy    Rad.  Index  Dose   UV     D-D     D-D    Temp   Hum    Dew   Heat    EMC Density     ET   Samp   Tx   Recept  Int.
------------------------------------------------------------------------------------------------------------------------------------------------------------------------------------------------------------------------------------------------------------------------
 7/21/19 12:10a   60.7   60.7   60.6    85   56.2   3.0   ENE   0.50   7.0   ENE   60.7   60.9   60.9   58.1  30.022  0.00  0.00     0     0.00      0     0.0  0.00   0.0   0.030   0.000   72.4    60   57.7   72.5  11.00  .0736    0.000   212    5    100.0   10 
 7/21/19 12:20a   60.7   60.7   60.7    85   56.2   3.0   ENE   0.50   8.0   ENE   60.7   60.9   60.9   58.1  30.022  0.00  0.00     0     0.00      0     0.0  0.00   0.0   0.030   0.000   72.4    60   57.7   72.5  11.00  .0736    0.000   211    5    100.0   10 
 7/21/19 12:30a   60.8   60.8   60.7    85   56.3   4.0   ENE   0.67   8.0   ENE   60.8   61.0   61.0   58.2  30.022  0.00  0.00     0     0.00      0     0.0  0.00   0.0   0.029   0.000   72.4    60   57.7   72.5  11.00  .0736    0.000   213    5    100.0   10 
 7/21/19 12:40a   60.8   60.8   60.7    85   56.3   4.0   ENE   0.67   9.0   ENE   60.8   61.0   61.0   58.2  30.020  0.00  0.00     0     0.00      0     0.0  0.00   0.0   0.029   0.000   72.4    60   57.7   72.5  11.00  .0736    0.000   212    5    100.0   10 
 7/21/19 12:50a   60.8   60.9   60.8    85   56.3   3.0    NE   0.50   8.0   NNE   60.8   61.0   61.0   58.2  30.020  0.00  0.00     0     0.00      0     0.0  0.00   0.0   0.029   0.000   72.4    60   57.7   72.5  11.00  .0736    0.000   211    5    100.0   10 
 7/21/19  1:00a   60.8   60.9   60.8    85   56.3   4.0   ENE   0.67   9.0    NE   60.8   61.0   61.0   58.2  30.019  0.00  0.00     0     0.00      0     0.0  0.00   0.0   0.029   0.000   72.4    60   57.7   72.5  11.00  .0736    0.001   214    5    100.0   10 
 7/21/19  1:10a   60.9   60.9   60.8    85   56.4   4.0   ENE   0.67  10.0    NE   60.9   61.1   61.1   58.3  30.018  0.00  0.00     0     0.00      0     0.0  0.00   0.0   0.028   0.000   72.4    60   57.7   72.5  11.00  .0736    0.000   213    5    100.0   10 
 7/21/19  1:20a   60.9   60.9   60.8    85   56.4   5.0   ENE   0.83  10.0   ENE   60.9   61.1   61.1   58.3  30.017  0.00  0.00     0     0.00      0     0.0  0.00   0.0   0.028   0.000   72.4    60   57.7   72.5  11.00  .0736    0.000   212    5    100.0   10 
 7/21/19  1:30a   60.9   60.9   60.9    85   56.4   4.0   ENE   0.67  10.0     E   60.9   61.1   61.1   58.3  30.017  0.00  0.00     0     0.00      0     0.0  0.00   0.0   0.028   0.000   72.3    60   57.6   72.4  11.00  .0736    0.000   213    5    100.0   10 
 7/21/19  1:40a   60.9   60.9   60.9    85   56.4   5.0   ENE   0.83  10.0    NE   60.9   61.1   61.1   58.3  30.016  0.00  0.00     0     0.00      0     0.0  0.00   0.0   0.028   0.000   72.4    60   57.7   72.5  11.00  .0736    0.000   212    5    100.0   10 
 7/21/19  1:50a   61.0   61.0   60.9    85   56.5   4.0   ENE   0.67  11.0   ENE   61.0   61.2   61.2   58.4  30.015  0.00  0.00     0     0.00      0     0.0  0.00   0.0   0.028   0.000   72.3    60   57.6   72.4  11.00  .0736    0.000   211    5    100.0   10 
 7/21/19  2:00a   61.0   61.1   61.0    84   56.1   4.0   ENE   0.67  11.0   ENE   61.0   61.2   61.2   58.4  30.013  0.00  0.00     0     0.00      0     0.0  0.00   0.0   0.028   0.000   72.3    60   57.6   72.4  11.00  .0736    0.001   214    5    100.0   10 
 7/21/19  2:10a   61.1   61.1   61.0    84   56.2   4.0   ENE   0.67   8.0   ENE   61.1   61.3   61.3   58.5  30.011  0.00  0.00     0     0.00      0     0.0  0.00   0.0   0.027   0.000   72.3    60   57.6   72.4  11.00  .0736    0.000   211    5    100.0   10 
 7/21/19  2:20a   61.1   61.1   61.0    84   56.2   3.0   ENE   0.50   7.0     E   61.1   61.3   61.3   58.5  30.008  0.00  0.00     0     0.00      0     0.0  0.00   0.0   0.027   0.000   72.3    60   57.6   72.4  11.00  .0736    0.000   212    5    100.0   10 
 7/21/19  2:30a   61.1   61.1   61.0    84   56.2   4.0   ENE   0.67   8.0     E   61.1   61.3   61.3   58.5  30.010  0.00  0.00     0     0.00      0     0.0  0.00   0.0   0.027   0.000   72.4    60   57.7   72.5  11.00  .0736    0.000   212    5    100.0   10 
 7/21/19  2:40a   61.1   61.1   61.1    84   56.2   4.0   ENE   0.67  10.0   ENE   61.1   61.3   61.3   58.5  30.009  0.00  0.00     0     0.00      0     0.0  0.00   0.0   0.027   0.000   72.3    60   57.6   72.4  11.00  .0736    0.000   212    5    100.0   10 
 7/21/19  2:50a   61.1   61.1   61.1    84   56.2   4.0   ENE   0.67   7.0   ENE   61.1   61.3   61.3   58.5  30.008  0.00  0.00     0     0.00      0     0.0  0.00   0.0   0.027   0.000   72.3    60   57.6   72.4  11.00  .0736    0.000   211    5    100.0   10 
 7/21/19  3:00a   61.1   61.1   61.1    84   56.2   3.0   ENE   0.50   8.0   ENE   61.1   61.3   61.3   58.5  30.006  0.00  0.00     0     0.00      0     0.0  0.00   0.0   0.027   0.000   72.3    59   57.2   72.3  10.86  .0736    0.001   214    5    100.0   10 
 7/21/19  3:10a   61.1   61.2   61.1    84   56.2   3.0   ENE   0.50   6.0    NE   61.1   61.3   61.3   58.5  30.006  0.00  0.00     0     0.00      0     0.0  0.00   0.0   0.027   0.000   72.4    59   57.3   72.4  10.85  .0736    0.000   213    5    100.0   10 
 7/21/19  3:20a   61.1   61.1   61.1    84   56.2   3.0   ENE   0.50   7.0     E   61.1   61.3   61.3   58.5  30.006  0.00  0.00     0     0.00      0     0.0  0.00   0.0   0.027   0.000   72.3    59   57.2   72.3  10.86  .0736    0.000   207    5    100.0   10 
 7/21/19  3:30a   61.0   61.1   61.0    84   56.1   3.0   ENE   0.50   7.0   ESE   61.0   61.2   61.2   58.4  30.004  0.00  0.00     0     0.00      0     0.0  0.00   0.0   0.028   0.000   72.3    59   57.2   72.3  10.86  .0736    0.000   214    5    100.0   10 
 7/21/19  3:40a   60.8   61.1   60.8    83   55.6   3.0   ENE   0.50   6.0     E   60.8   60.9   60.9   58.1  30.003  0.00  0.00     0     0.00      0     0.0  0.00   0.0   0.029   0.000   72.3    59   57.2   72.3  10.86  .0736    0.000   210    5    100.0   10 
 7/21/19  3:50a   60.0   60.8   60.0    84   55.2   3.0   ENE   0.50   8.0   NNE   60.0   60.1   60.1   57.3  30.004  0.00  0.00     0     0.00      0     0.0  0.00   0.0   0.035   0.000   72.3    59   57.2   72.3  10.86  .0736    0.000   213    5    100.0   10 
 7/21/19  4:00a   59.8   60.1   59.8    84   55.0   3.0    NE   0.50   7.0   NNE   59.8   59.8   59.8   56.9  30.005  0.00  0.00     0     0.00      0     0.0  0.00   0.0   0.036   0.000   72.3    59   57.2   72.3  10.86  .0736    0.001   213    5    100.0   10 
 7/21/19  4:10a   59.8   59.9   59.8    84   55.0   3.0   ENE   0.50   5.0   ENE   59.8   59.8   59.8   56.9  30.006  0.00  0.00     0     0.00      0     0.0  0.00   0.0   0.036   0.000   72.3    59   57.2   72.3  10.86  .0736    0.000   211    5    100.0   10 
 7/21/19  4:20a   59.3   59.8   59.3    84   54.5   3.0    NE   0.50   5.0    NE   59.3   59.3   59.3   56.4  30.009  0.00  0.00     0     0.00      0     0.0  0.00   0.0   0.040   0.000   72.3    59   57.2   72.3  10.86  .0736    0.000   213    5    100.0   10 
 7/21/19  4:30a   59.4   59.4   59.2    85   54.9   3.0    NE   0.50   6.0    NE   59.4   59.4   59.4   56.5  30.010  0.00  0.00     0     0.00      0     0.0  0.00   0.0   0.039   0.000   72.3    59   57.2   72.3  10.86  .0736    0.000   213    5    100.0   10 
 7/21/19  4:40a   59.5   59.5   59.4    85   55.0   2.0   ENE   0.33   4.0    NE   59.5   59.5   59.5   56.6  30.013  0.00  0.00     0     0.00      0     0.0  0.00   0.0   0.038   0.000   72.3    59   57.2   72.3  10.86  .0737    0.000   212    5    100.0   10 
 7/21/19  4:50a   59.5   59.5   59.5    86   55.3   2.0   ENE   0.33   5.0    NE   59.5   59.6   59.6   56.8  30.017  0.00  0.00     0     0.00      0     0.0  0.00   0.0   0.038   0.000   72.3    59   57.2   72.3  10.86  .0737    0.000   212    5    100.0   10 
 7/21/19  5:00a   59.3   59.5   59.3    86   55.1   2.0    NE   0.33   4.0   ENE   59.3   59.4   59.4   56.6  30.018  0.00  0.00     0     0.00      0     0.0  0.00   0.0   0.040   0.000   72.3    59   57.2   72.3  10.86  .0737    0.001   211    5    100.0   10 
 7/21/19  5:10a   59.2   59.3   59.1    86   55.0   2.0   ENE   0.33   4.0    NE   59.2   59.3   59.3   56.5  30.021  0.00  0.00     0     0.00      0     0.0  0.00   0.0   0.040   0.000   72.3    59   57.2   72.3  10.86  .0737    0.000   212    5    100.0   10 
 7/21/19  5:20a   58.6   59.3   58.6    86   54.4   2.0   ENE   0.33   5.0   ENE   58.6   58.6   58.6   55.7  30.021  0.00  0.00     0     0.00      0     0.0  0.00   0.0   0.044   0.000   72.2    59   57.1   72.1  10.86  .0737    0.000   212    5    100.0   10 
 7/21/19  5:30a   59.0   59.1   58.6    86   54.8   2.0   ENE   0.33   4.0    NE   59.0   59.0   59.0   56.1  30.023  0.00  0.00     0     0.00      0     0.0  0.00   0.0   0.042   0.000   72.3    59   57.2   72.3  10.86  .0737    0.000   213    5    100.0   10 
 7/21/19  5:40a   58.3   59.0   58.2    86   54.1   3.0    NE   0.50   4.0   NNE   58.3   58.3   58.3   55.4  30.026  0.00  0.00     0     0.00      0     0.0  0.00   0.0   0.047   0.000   72.3    59   57.2   72.3  10.86  .0737    0.000   211    5    100.0   10 
 7/21/19  5:50a   58.6   58.6   58.3    87   54.7   1.0   ENE   0.17   3.0   ENE   58.6   58.6   58.6   55.7  30.030  0.00  0.00     0     0.00      0     0.0  0.00   0.0   0.044   0.000   72.3    59   57.2   72.3  10.86  .0737    0.000   212    5    100.0   10 
 7/21/19  6:00a   59.1   59.1   58.6    87   55.2   2.0   ENE   0.33   5.0   ENE   59.1   59.2   59.2   56.4  30.030  0.00  0.00     2     0.03      5     0.0  0.00   0.0   0.041   0.000   72.2    59   57.1   72.1  10.86  .0737    0.000   211    5    100.0   10 
 7/21/19  6:10a   59.5   59.5   59.1    87   55.6   2.0   ENE   0.33   5.0   ENE   59.5   59.6   59.6   56.9  30.033  0.00  0.00     7     0.10      9     0.0  0.00   0.0   0.038   0.000   72.3    59   57.2   72.3  10.86  .0737    0.000   210    5    100.0   10 
 7/21/19  6:20a   59.7   59.7   59.5    86   55.5   2.0   ENE   0.33   6.0   ENE   59.7   59.8   59.8   57.2  30.032  0.00  0.00    12     0.17     14     0.0  0.00   0.0   0.037   0.000   72.3    59   57.2   72.3  10.86  .0737    0.000   211    5    100.0   10 
 7/21/19  6:30a   59.9   59.9   59.7    86   55.7   2.0   ENE   0.33   7.0   ESE   59.9   60.0   60.0   57.6  30.031  0.00  0.00    19     0.27     23     0.0  0.00   0.0   0.035   0.000   72.3    59   57.2   72.3  10.86  .0737    0.000   210    5    100.0   10 
 7/21/19  6:40a   60.2   60.2   59.9    86   56.0   2.0   ENE   0.33   7.0   ENE   60.2   60.4   60.4   58.2  30.032  0.00  0.00    27     0.39     30     0.0  0.00   0.0   0.033   0.000   72.4    59   57.3   72.4  10.85  .0737    0.000   213    5    100.0   10 
 7/21/19  6:50a   60.5   60.5   60.2    86   56.3   2.0   ENE   0.33   5.0    NE   60.5   60.7   60.7   60.5  30.034  0.00  0.00    33     0.47     35     0.0  0.00   0.0   0.031   0.000   72.4    59   57.3   72.4  10.85  .0737    0.000   212    5    100.0   10 
 7/21/19  7:00a   60.5   60.6   60.5    85   56.0   2.0   ENE   0.33   3.0   ENE   60.5   60.7   60.7   60.8  30.033  0.00  0.00    40     0.57     42     0.0  0.00   0.0   0.031   0.000   72.4    59   57.3   72.4  10.85  .0737    0.001   214    5    100.0   10 
 7/21/19  7:10a   60.7   60.7   60.5    85   56.2   2.0   ENE   0.33   6.0   ENE   60.7   60.9   60.9   61.2  30.033  0.00  0.00    44     0.63     47     0.0  0.00   0.0   0.030   0.000   72.4    59   57.3   72.4  10.85  .0737    0.000   213    5    100.0   10 
 7/21/19  7:20a   60.7   60.8   60.7    84   55.8   2.0   ENE   0.33   5.0    NE   60.7   60.8   60.8   61.5  30.034  0.00  0.00    55     0.79     60     0.0  0.00   0.0   0.030   0.000   72.5    59   57.4   72.6  10.85  .0737    0.000   210    5    100.0   10 
 7/21/19  7:30a   60.8   60.8   60.7    84   55.9   2.0   ENE   0.33   7.0   ENE   60.8   60.9   60.9   61.6  30.035  0.00  0.00    58     0.83     67     0.0  0.00   0.0   0.029   0.000   72.5    59   57.4   72.6  10.85  .0737    0.000   213    5    100.0   10 
 7/21/19  7:40a   61.2   61.2   60.8    84   56.3   2.0    NE   0.33   6.0   ENE   61.2   61.4   61.4   62.9  30.035  0.00  0.00    79     1.13     86     0.0  0.00   0.0   0.026   0.000   72.5    59   57.4   72.6  10.85  .0737    0.000   211    5    100.0   10 
 7/21/19  7:50a   61.0   61.2   61.0    83   55.8   2.0    NE   0.33   5.0   ENE   61.0   61.1   61.1   62.8  30.038  0.00  0.00    87     1.25     93     0.0  0.00   0.0   0.028   0.000   72.6    59   57.4   72.7  10.85  .0737    0.000   212    5    100.0   10 
 7/21/19  8:00a   61.0   61.0   60.9    83   55.8   2.0    NE   0.33   4.0    NE   61.0   61.1   61.1   62.7  30.040  0.00  0.00    87     1.25     93     0.0  0.00   0.0   0.028   0.000   72.6    59   57.4   72.7  10.85  .0737    0.002   212    5    100.0   10 
 7/21/19  8:10a   61.4   61.4   61.0    84   56.5   3.0     E   0.50   4.0    NE   61.4   61.6   61.6   64.0  30.040  0.00  0.00   112     1.61    137     0.0  0.00   0.0   0.025   0.000   72.6    59   57.4   72.7  10.85  .0737    0.000   211    5    100.0   10 
 7/21/19  8:20a   61.6   61.7   61.4    83   56.4   3.0   ENE   0.50   7.0   ENE   61.6   61.8   61.8   65.7  30.043  0.00  0.00   162     2.32    171     0.0  0.00   0.0   0.024   0.000   72.6    59   57.4   72.7  10.85  .0737    0.000   212    5    100.0   10 
 7/21/19  8:30a   61.6   61.7   61.5    82   56.0   4.0   NNE   0.67   6.0    NE   61.6   61.8   61.8   65.8  30.043  0.00  0.00   171     2.45    183     0.0  0.00   0.0   0.024   0.000   72.6    59   57.4   72.7  10.85  .0737    0.000   212    5    100.0   10 
 7/21/19  8:40a   61.5   61.6   61.5    82   56.0   3.0    NE   0.50   7.0   NNE   61.5   61.7   61.7   65.7  30.046  0.00  0.00   178     2.55    186     0.0  0.00   0.0   0.024   0.000   72.6    59   57.4   72.7  10.85  .0737    0.000   213    5    100.0   10 
 7/21/19  8:50a   61.7   61.7   61.5    82   56.1   4.0    NE   0.67   6.0     E   61.7   61.9   61.9   66.4  30.046  0.00  0.00   201     2.88    218     0.0  0.00   0.0   0.023   0.000   72.7    59   57.5   72.9  10.84  .0737    0.000   212    5    100.0   10 
 7/21/19  9:00a   62.0   62.1   61.7    81   56.1   4.0    NE   0.67   9.0   NNE   62.0   62.2   62.2   67.5  30.049  0.00  0.00   232     3.33    278     0.0  0.00   0.0   0.021   0.000   72.7    59   57.5   72.9  10.84  .0737    0.004   212    5    100.0   10 
 7/21/19  9:10a   62.1   62.2   61.9    81   56.2   4.0    NE   0.67   9.0    NE   62.1   62.3   62.3   69.3  30.047  0.00  0.00   310     4.44    350     0.0  0.00   0.0   0.020   0.000   72.7    59   57.5   72.9  10.84  .0737    0.000   212    5    100.0   10 
 7/21/19  9:20a   62.1   62.1   62.0    81   56.2   4.0    NE   0.67   8.0   NNE   62.1   62.3   62.3   68.3  30.047  0.00  0.00   274     3.93    299     0.0  0.00   0.0   0.020   0.000   72.7    59   57.5   72.9  10.84  .0737    0.000   214    5    100.0   10 
 7/21/19  9:30a   62.5   62.5   62.1    82   56.9   3.0    NE   0.50   7.0     E   62.5   62.8   62.8   69.4  30.050  0.00  0.00   309     4.43    367     0.0  0.00   0.0   0.017   0.000   72.7    59   57.5   72.9  10.84  .0737    0.000   209    5    100.0   10 
 7/21/19  9:40a   62.8   62.8   62.5    81   56.9   4.0    NE   0.67   7.0   NNE   62.8   63.1   63.1   70.9  30.050  0.00  0.00   373     5.35    700     0.0  0.00   0.0   0.015   0.000   72.8    59   57.6   73.0  10.84  .0737    0.000   212    5    100.0   10 
 7/21/19  9:50a   63.2   63.3   62.8    80   56.9   4.0    NE   0.67   7.0    NE   63.2   63.5   63.5   72.6  30.049  0.00  0.00   451     6.47    719     0.0  0.00   0.0   0.012   0.000   72.8    59   57.6   73.0  10.84  .0737    0.000   213    5    100.0   10 
 7/21/19 10:00a   63.1   63.2   63.1    80   56.8   4.0    NE   0.67   8.0   ENE   63.1   63.4   63.4   71.3  30.045  0.00  0.00   396     5.68    715     0.0  0.00   0.0   0.013   0.000   72.8    59   57.6   73.0  10.84  .0736    0.008   212    5    100.0   10 
 7/21/19 10:10a   63.4   63.4   63.1    80   57.1   5.0    NE   0.83   7.0   ENE   63.4   63.8   63.8   74.2  30.047  0.00  0.00   711    10.19    791     0.0  0.00   0.0   0.011   0.000   72.7    59   57.5   72.9  10.84  .0737    0.000   213    5    100.0   10 
 7/21/19 10:20a   63.1   63.4   63.1    79   56.5   6.0    NE   1.00   9.0    NE   63.1   63.3   63.3   73.9  30.046  0.00  0.00   597     8.56    840     0.0  0.00   0.0   0.013   0.000   72.7    59   57.5   72.9  10.84  .0737    0.000   212    5    100.0   10 
 7/21/19 10:30a   63.3   63.3   63.1    79   56.7   5.0    NE   0.83   8.0   NNE   63.3   63.6   63.6   72.6  30.048  0.00  0.00   483     6.92    526     0.0  0.00   0.0   0.012   0.000   72.7    59   57.5   72.9  10.84  .0737    0.000   212    5    100.0   10 
 7/21/19 10:40a   63.8   63.8   63.3    79   57.2   4.0    NE   0.67   8.0   NNE   63.8   64.2   64.2   74.9  30.047  0.00  0.00   759    10.88    779     0.0  0.00   0.0   0.008   0.000   72.7    59   57.5   72.9  10.84  .0737    0.000   212    5    100.0   10 
 7/21/19 10:50a   64.1   64.1   63.8    77   56.7   5.0    NE   0.83  10.0    NE   64.1   64.4   64.4   75.3  30.048  0.00  0.00   763    10.94    788     0.0  0.00   0.0   0.006   0.000   72.7    59   57.5   72.9  10.84  .0737    0.000   213    5    100.0   10 
 7/21/19 11:00a   64.5   64.5   64.0    76   56.8   6.0    NE   1.00  10.0    NE   64.5   64.8   64.8   75.8  30.049  0.00  0.00   773    11.08    780     0.0  0.00   0.0   0.003   0.000   72.7    59   57.5   72.9  10.84  .0737    0.015   212    5    100.0   10 
 7/21/19 11:10a   64.6   64.6   64.5    75   56.5   5.0    NE   0.83   9.0   ENE   64.6   64.8   64.8   75.9  30.051  0.00  0.00   789    11.31    798     0.0  0.00   0.0   0.003   0.000   72.6    59   57.4   72.7  10.85  .0737    0.000   212    5    100.0   10 
 7/21/19 11:20a   65.0   65.0   64.5    76   57.2   5.0    NE   0.83   8.0   NNE   65.0   65.4   65.4   76.5  30.052  0.00  0.00   805    11.54    812     0.0  0.00   0.0   0.000   0.000   72.6    59   57.4   72.7  10.85  .0737    0.000   213    5    100.0   10 
 7/21/19 11:30a   65.5   65.5   65.0    75   57.4   6.0    NE   1.00   9.0   NNE   65.5   65.9   65.9   77.0  30.051  0.00  0.00   821    11.77    830     0.0  0.00   0.0   0.000   0.003   72.6    59   57.4   72.7  10.85  .0737    0.000   212    5    100.0   10 
 7/21/19 11:40a   65.8   65.8   65.5    74   57.3   6.0    NE   1.00  10.0   NNE   65.8   66.2   66.2   77.3  30.047  0.00  0.00   837    12.00    844     0.0  0.00   0.0   0.000   0.006   72.6    59   57.4   72.7  10.85  .0737    0.000   213    5    100.0   10 
 7/21/19 11:50a   66.0   66.2   65.8    72   56.7   6.0    NE   1.00   9.0    NE   66.0   66.3   66.3   77.3  30.048  0.00  0.00   851    12.20    856     0.0  0.00   0.0   0.000   0.007   72.6    59   57.4   72.7  10.85  .0737    0.000   213    5    100.0   10 
 7/21/19 12:00p   66.4   66.4   65.9    73   57.5   5.0   ENE   0.83   8.0   ENE   66.4   66.9   66.9   77.9  30.047  0.00  0.00   864    12.39    868     0.0  0.00   0.0   0.000   0.010   72.7    59   57.5   72.9  10.84  .0737    0.019   211    5    100.0   10 
 7/21/19 12:10p   66.6   66.8   66.4    71   56.9   5.0    NE   0.83   8.0   ENE   66.6   67.0   67.0   78.0  30.049  0.00  0.00   875    12.54    881     0.0  0.00   0.0   0.000   0.011   72.6    59   57.4   72.7  10.85  .0737    0.000   213    5    100.0   10 
 7/21/19 12:20p   64.9   66.6   64.9    72   55.7   4.0   NNE   0.67   7.0   NNE   64.9   65.0   65.0   75.9  30.050  0.00  0.00   884    12.67    888     0.0  0.00   0.0   0.001   0.000   72.6    59   57.4   72.7  10.85  .0737    0.000   213    5    100.0   10 
 7/21/19 12:30p   63.5   64.8   63.5    76   55.8   4.0     N   0.67   7.0   NNE   63.5   63.6   63.6   74.5  30.050  0.00  0.00   891    12.77    896     0.0  0.00   0.0   0.010   0.000   72.7    59   57.5   72.9  10.84  .0737    0.000   212    5    100.0   10 
 7/21/19 12:40p   63.2   63.5   63.2    78   56.2   4.0     N   0.67   7.0   NNE   63.2   63.4   63.4   74.3  30.051  0.00  0.00   900    12.90    904     0.0  0.00   0.0   0.012   0.000   72.8    59   57.6   73.0  10.84  .0737    0.000   212    5    100.0   10 
 7/21/19 12:50p   63.4   63.4   63.0    79   56.8   4.0     N   0.67   8.0   NNE   63.4   63.7   63.7   74.5  30.048  0.00  0.00   908    13.02    911     0.0  0.00   0.0   0.011   0.000   72.9    59   57.7   73.2  10.83  .0736    0.000   212    5    100.0   10 
 7/21/19  1:00p   64.4   64.4   63.4    79   57.7   5.0     N   0.83   9.0     N   64.4   64.9   64.9   75.7  30.049  0.00  0.00   913    13.09    916     0.0  0.00   0.0   0.004   0.000   73.0    59   57.8   73.3  10.83  .0736    0.020   213    5    100.0   10 
 7/21/19  1:10p   64.5   64.6   64.4    77   57.1   5.0     N   0.83   9.0   ENE   64.5   64.9   64.9   75.7  30.052  0.00  0.00   916    13.13    918     0.0  0.00   0.0   0.003   0.000   73.1    59   57.9   73.4  10.83  .0736    0.000   213    5    100.0   10 
 7/21/19  1:20p   65.2   65.2   64.4    77   57.8   5.0     N   0.83   9.0    NE   65.2   65.7   65.7   76.4  30.050  0.00  0.00   919    13.17    919     0.0  0.00   0.0   0.000   0.001   73.1    59   57.9   73.4  10.83  .0736    0.000   213    5    100.0   10 
 7/21/19  1:30p   66.5   66.5   65.2    76   58.7   6.0    NE   1.00  10.0   ENE   66.5   67.2   67.2   77.9  30.048  0.00  0.00   919    13.17    921     0.0  0.00   0.0   0.000   0.010   73.1    59   57.9   73.4  10.83  .0736    0.000   212    5    100.0   10 
 7/21/19  1:40p   67.2   67.2   66.4    75   59.0   6.0    NE   1.00  11.0   ENE   67.2   67.9   67.9   78.6  30.049  0.00  0.00   919    13.17    921     0.0  0.00   0.0   0.000   0.015   73.0    59   57.8   73.3  10.83  .0736    0.000   210    5    100.0   10 
 7/21/19  1:50p   67.8   67.8   67.2    75   59.6   6.0    NE   1.00  10.0    NE   67.8   68.7   68.7   79.2  30.048  0.00  0.00   920    13.19    921     0.0  0.00   0.0   0.000   0.019   73.0    59   57.8   73.3  10.83  .0736    0.000   213    5    100.0   10 
 7/21/19  2:00p   68.4   68.4   67.8    74   59.8   7.0    NE   1.17  11.0    NE   68.4   69.3   69.3   79.5  30.045  0.00  0.00   917    13.15    923     0.0  0.00   0.0   0.000   0.024   73.1    60   58.4   73.5  10.99  .0736    0.021   213    5    100.0   10 
 7/21/19  2:10p   67.8   68.5   67.8    74   59.2   7.0    NE   1.17  11.0    NE   67.8   68.6   68.6   78.8  30.048  0.00  0.00   911    13.06    914     0.0  0.00   0.0   0.000   0.019   73.1    60   58.4   73.5  10.99  .0736    0.000   212    5    100.0   10 
 7/21/19  2:20p   68.1   68.2   67.8    75   59.9   7.0    NE   1.17  11.0   ENE   68.1   69.0   69.0   79.1  30.046  0.00  0.00   905    12.97    907     0.0  0.00   0.0   0.000   0.022   73.0    60   58.3   73.4  10.99  .0736    0.000   211    5    100.0   10 
 7/21/19  2:30p   68.2   68.3   68.1    75   60.0   7.0    NE   1.17  11.0    NE   68.2   69.1   69.1   79.1  30.046  0.00  0.00   897    12.86    902     0.0  0.00   0.0   0.000   0.022   72.8    60   58.1   73.1  10.99  .0736    0.000   210    5    100.0   10 
 7/21/19  2:40p   68.2   68.2   68.1    75   60.0   8.0    NE   1.33  12.0    NE   67.5   69.1   68.4   77.8  30.044  0.00  0.00   889    12.74    893     0.0  0.00   0.0   0.000   0.022   72.7    61   58.5   73.0  11.14  .0736    0.000   212    5    100.0   10 
 7/21/19  2:50p   68.3   68.4   68.2    75   60.1   9.0    NE   1.50  13.0    NE   66.9   69.2   67.8   76.9  30.047  0.00  0.00   878    12.59    882     0.0  0.00   0.0   0.000   0.023   72.7    61   58.5   73.0  11.14  .0736    0.000   213    5    100.0   10 
 7/21/19  3:00p   68.2   68.4   68.1    74   59.6   8.0   NNE   1.33  13.0   NNE   67.5   69.0   68.3   77.8  30.045  0.00  0.00   868    12.44    875     0.0  0.00   0.0   0.000   0.022   72.9    61   58.7   73.3  11.13  .0736    0.022   211    5    100.0   10 
 7/21/19  3:10p   67.8   68.2   67.7    75   59.6   9.0   NNE   1.50  13.0   ENE   66.4   68.7   67.3   76.5  30.044  0.00  0.00   853    12.23    860     0.0  0.00   0.0   0.000   0.019   73.1    61   58.8   73.6  11.13  .0736    0.000   212    5    100.0   10 
 7/21/19  3:20p   67.4   68.0   67.4    74   58.8   9.0    NE   1.50  13.0    NE   66.1   68.1   66.8   76.0  30.044  0.00  0.00   838    12.01    844     0.0  0.00   0.0   0.000   0.017   73.3    61   59.0   73.9  11.12  .0735    0.000   213    5    100.0   10 
 7/21/19  3:30p   67.7   67.8   67.4    75   59.5   9.0    NE   1.50  14.0    NE   66.3   68.5   67.1   76.4  30.044  0.00  0.00   821    11.77    830     0.0  0.00   0.0   0.000   0.019   73.4    61   59.1   74.0  11.11  .0735    0.000   210    5    100.0   10 
 7/21/19  3:40p   67.6   67.7   67.6    74   59.0  10.0    NE   1.67  13.0   NNE   65.5   68.4   66.3   75.4  30.045  0.00  0.00   806    11.55    814     0.0  0.00   0.0   0.000   0.018   73.5    60   58.8   74.1  10.98  .0735    0.000   212    5    100.0   10 
 7/21/19  3:50p   67.9   68.0   67.6    74   59.3   9.0    NE   1.50  13.0    NE   66.5   68.7   67.3   76.8  30.045  0.00  0.00   788    11.30    796     0.0  0.00   0.0   0.000   0.020   73.6    60   58.9   74.2  10.98  .0735    0.000   212    5    100.0   10 
 7/21/19  4:00p   68.5   68.5   67.9    73   59.5   8.0    NE   1.33  13.0    NE   67.8   69.3   68.6   78.5  30.047  0.00  0.00   769    11.02    779     0.0  0.00   0.0   0.000   0.024   73.7    60   58.9   74.3  10.98  .0735    0.020   212    5    100.0   10 
 7/21/19  4:10p   68.6   68.6   68.4    73   59.6   9.0    NE   1.50  12.0    NE   67.2   69.4   68.0   77.6  30.047  0.00  0.00   749    10.74    759     0.0  0.00   0.0   0.000   0.025   73.8    60   59.0   74.4  10.97  .0735    0.000   214    5    100.0   10 
 7/21/19  4:20p   68.4   68.6   68.4    73   59.4   9.0    NE   1.50  13.0    NE   67.0   69.2   67.8   77.5  30.042  0.00  0.00   729    10.45    738     0.0  0.00   0.0   0.000   0.024   73.8    60   59.0   74.4  10.97  .0734    0.000   213    5    100.0   10 
 7/21/19  4:30p   68.6   68.6   68.3    74   60.0   7.0    NE   1.17  12.0    NE   68.6   69.5   69.5   80.0  30.039  0.00  0.00   707    10.13    717     0.0  0.00   0.0   0.000   0.025   73.9    60   59.1   74.6  10.97  .0734    0.000   212    5    100.0   10 
 7/21/19  4:40p   68.6   68.7   68.6    73   59.6   9.0    NE   1.50  13.0    NE   67.2   69.4   68.0   77.8  30.036  0.00  0.00   684     9.81    694     0.0  0.00   0.0   0.000   0.025   73.9    60   59.1   74.6  10.97  .0734    0.000   213    5    100.0   10 
 7/21/19  4:50p   68.7   68.7   68.5    73   59.7   8.0   NNE   1.33  14.0    NE   68.0   69.5   68.8   78.9  30.034  0.00  0.00   661     9.48    671     0.0  0.00   0.0   0.000   0.026   74.0    60   59.2   74.7  10.97  .0734    0.000   212    5    100.0   10 
 7/21/19  5:00p   69.1   69.2   68.7    71   59.3   7.0    NE   1.17  13.0   NNE   69.1   69.6   69.6   80.3  30.032  0.00  0.00   637     9.13    649     0.0  0.00   0.0   0.000   0.028   74.0    60   59.2   74.7  10.97  .0734    0.018   212    5    100.0   10 
 7/21/19  5:10p   68.7   69.1   68.7    72   59.3   8.0   NNE   1.33  12.0    NE   68.0   69.4   68.7   78.8  30.027  0.00  0.00   609     8.73    622     0.0  0.00   0.0   0.000   0.026   74.0    60   59.2   74.7  10.97  .0734    0.000   211    5    100.0   10 
 7/21/19  5:20p   68.5   68.9   68.5    71   58.7   7.0    NE   1.17  13.0   ENE   68.5   69.1   69.1   79.7  30.027  0.00  0.00   584     8.37    592     0.0  0.00   0.0   0.000   0.024   74.0    60   59.2   74.7  10.97  .0734    0.000   212    5    100.0   10 
 7/21/19  5:30p   68.6   68.7   68.5    71   58.8   7.0   ENE   1.17  13.0    NE   68.6   69.2   69.2   79.8  30.024  0.00  0.00   557     7.98    570     0.0  0.00   0.0   0.000   0.025   73.9    60   59.1   74.6  10.97  .0734    0.000   213    5    100.0   10 
 7/21/19  5:40p   68.3   68.6   68.3    71   58.5   8.0    NE   1.33  12.0    NE   67.6   68.9   68.2   78.3  30.023  0.00  0.00   530     7.60    543     0.0  0.00   0.0   0.000   0.023   73.9    60   59.1   74.6  10.97  .0734    0.000   214    5    100.0   10 
 7/21/19  5:50p   68.0   68.5   68.0    71   58.2   7.0   ENE   1.17  13.0    NE   68.0   68.7   68.7   79.2  30.023  0.00  0.00   502     7.20    515     0.0  0.00   0.0   0.000   0.021   73.8    60   59.0   74.4  10.97  .0734    0.000   212    5    100.0   10 
 7/21/19  6:00p   67.6   68.0   67.5    72   58.2   7.0    NE   1.17  13.0    NE   67.6   68.2   68.2   78.6  30.023  0.00  0.00   474     6.79    489     0.0  0.00   0.0   0.000   0.018   73.8    60   59.0   74.4  10.97  .0734    0.014   212    5    100.0   10 
 7/21/19  6:10p   66.9   67.6   66.9    73   58.0   8.0    NE   1.33  13.0    NE   66.3   67.5   66.9   76.6  30.021  0.00  0.00   444     6.36    457     0.0  0.00   0.0   0.000   0.013   73.8    60   59.0   74.4  10.97  .0734    0.000   212    5    100.0   10 
 7/21/19  6:20p   67.3   67.4   66.9    73   58.3   6.0   NNE   1.00  11.0     E   67.3   67.9   67.9   78.1  30.020  0.00  0.00   416     5.96    429     0.0  0.00   0.0   0.000   0.016   73.8    60   59.0   74.4  10.97  .0734    0.000   212    5    100.0   10 
 7/21/19  6:30p   67.4   67.4   67.2    73   58.4   6.0    NE   1.00  11.0   NNE   67.4   68.1   68.1   78.0  30.021  0.00  0.00   387     5.55    401     0.0  0.00   0.0   0.000   0.017   73.9    60   59.1   74.6  10.97  .0734    0.000   212    5    100.0   10 
 7/21/19  6:40p   66.9   67.4   66.9    73   58.0   7.0    NE   1.17  13.0   NNE   66.9   67.5   67.5   76.8  30.015  0.00  0.00   357     5.12    371     0.0  0.00   0.0   0.000   0.013   74.0    60   59.2   74.7  10.97  .0733    0.000   211    5    100.0   10 
 7/21/19  6:50p   66.2   66.9   66.2    74   57.7   8.0    NE   1.33  12.0     E   65.6   66.7   66.1   74.6  30.013  0.00  0.00   327     4.69    339     0.0  0.00   0.0   0.000   0.008   74.0    60   59.2   74.7  10.97  .0733    0.000   212    5    100.0   10 
 7/21/19  7:00p   66.1   66.3   66.1    75   57.9   8.0    NE   1.33  13.0    NE   65.5   66.6   66.0   74.1  30.015  0.00  0.00   298     4.27    311     0.0  0.00   0.0   0.000   0.008   74.0    60   59.2   74.7  10.97  .0733    0.010   211    5    100.0   10 
 7/21/19  7:10p   66.2   66.4   66.1    75   58.0   7.0    NE   1.17  12.0   NNE   66.2   66.7   66.7   74.4  30.013  0.00  0.00   267     3.83    281     0.0  0.00   0.0   0.000   0.008   74.1    60   59.3   74.8  10.97  .0733    0.000   214    5    100.0   10 
 7/21/19  7:20p   65.7   66.1   65.6    76   57.9   7.0    NE   1.17  12.0    NE   65.7   66.2   66.2   73.1  30.013  0.00  0.00   238     3.41    251     0.0  0.00   0.0   0.000   0.005   74.1    60   59.3   74.8  10.97  .0733    0.000   213    5    100.0   10 
 7/21/19  7:30p   65.7   65.8   65.6    76   57.9   6.0    NE   1.00  12.0    NE   65.7   66.2   66.2   72.3  30.015  0.00  0.00   204     2.92    221     0.0  0.00   0.0   0.000   0.005   74.1    60   59.3   74.8  10.97  .0733    0.000   213    5    100.0   10 
 7/21/19  7:40p   65.7   65.8   65.6    77   58.3   6.0   ENE   1.00  11.0    NE   65.7   66.3   66.3   71.1  30.015  0.00  0.00   168     2.41    179     0.0  0.00   0.0   0.000   0.005   74.2    60   59.4   74.9  10.97  .0733    0.000   212    5    100.0   10 
 7/21/19  7:50p   65.6   65.8   65.6    76   57.8   6.0    NE   1.00  11.0   NNE   65.6   66.1   66.1   69.7  30.016  0.00  0.00   136     1.95    151     0.0  0.00   0.0   0.000   0.004   74.2    60   59.4   74.9  10.97  .0733    0.000   212    5    100.0   10 
 7/21/19  8:00p   64.9   65.5   64.9    77   57.5   6.0   ENE   1.00  11.0   ENE   64.9   65.3   65.3   64.8  30.016  0.00  0.00   104     1.49    118     0.0  0.00   0.0   0.001   0.000   74.2    60   59.4   74.9  10.97  .0733    0.006   211    5    100.0   10 
 7/21/19  8:10p   64.5   65.0   64.5    78   57.5   6.0    NE   1.00  11.0    NE   64.5   64.9   64.9   63.8  30.016  0.00  0.00    74     1.06     86     0.0  0.00   0.0   0.003   0.000   74.1    60   59.3   74.8  10.97  .0733    0.000   212    5    100.0   10 
 7/21/19  8:20p   64.1   64.5   64.1    78   57.1   6.0   ENE   1.00  10.0    NE   64.1   64.5   64.5   62.8  30.018  0.00  0.00    48     0.69     58     0.0  0.00   0.0   0.006   0.000   73.9    60   59.1   74.6  10.97  .0734    0.000   213    5    100.0   10 
 7/21/19  8:30p   63.7   64.1   63.7    79   57.1   6.0   ENE   1.00  10.0    NE   63.7   64.1   64.1   62.0  30.020  0.00  0.00    30     0.43     39     0.0  0.00   0.0   0.009   0.000   73.7    60   58.9   74.3  10.98  .0734    0.000   208    5    100.0   10 
 7/21/19  8:40p   63.2   63.6   63.2    79   56.6   5.0   ENE   0.83  10.0    NE   63.2   63.5   63.5   61.0  30.022  0.00  0.00    14     0.20     21     0.0  0.00   0.0   0.012   0.000   73.5    60   58.8   74.1  10.98  .0734    0.000   214    5    100.0   10 
 7/21/19  8:50p   62.7   63.2   62.7    80   56.4   4.0   ENE   0.67   9.0   ENE   62.7   63.0   63.0   60.4  30.024  0.00  0.00     5     0.07      9     0.0  0.00   0.0   0.016   0.000   73.4    60   58.7   73.9  10.98  .0735    0.000   211    5    100.0   10 
 7/21/19  9:00p   62.4   62.7   62.4    80   56.1   3.0   ENE   0.50   5.0     E   62.4   62.6   62.6   59.8  30.023  0.00  0.00     0     0.00      0     0.0  0.00   0.0   0.018   0.000   73.4    60   58.7   73.9  10.98  .0735    0.002   210    5    100.0   10 
 7/21/19  9:10p   62.1   62.4   62.1    81   56.2   3.0   ENE   0.50   6.0   ENE   62.1   62.3   62.3   59.5  30.026  0.00  0.00     0     0.00      0     0.0  0.00   0.0   0.020   0.000   73.4    60   58.7   73.9  10.98  .0735    0.000   212    5    100.0   10 
 7/21/19  9:20p   61.8   62.1   61.8    81   55.9   3.0   ENE   0.50   8.0   ENE   61.8   62.0   62.0   59.2  30.027  0.00  0.00     0     0.00      0     0.0  0.00   0.0   0.022   0.000   73.5    60   58.8   74.1  10.98  .0735    0.000   213    5    100.0   10 
 7/21/19  9:30p   61.6   61.8   61.6    82   56.0   3.0   ENE   0.50   8.0     E   61.6   61.8   61.8   59.0  30.030  0.00  0.00     0     0.00      0     0.0  0.00   0.0   0.024   0.000   73.6    60   58.9   74.2  10.98  .0734    0.000   213    5    100.0   10 
 7/21/19  9:40p   61.5   61.6   61.5    82   56.0   3.0   ENE   0.50   9.0   ENE   61.5   61.7   61.7   58.9  30.032  0.00  0.00     0     0.00      0     0.0  0.00   0.0   0.024   0.000   73.6    60   58.9   74.2  10.98  .0735    0.000   213    5    100.0   10 
 7/21/19  9:50p   61.4   61.5   61.4    82   55.9   4.0     E   0.67  10.0   ENE   61.4   61.5   61.5   58.7  30.035  0.00  0.00     0     0.00      0     0.0  0.00   0.0   0.025   0.000   73.7    60   58.9   74.3  10.98  .0734    0.000   212    5    100.0   10 
 7/21/19 10:00p   61.3   61.4   61.3    83   56.1   4.0   ENE   0.67  10.0    NE   61.3   61.5   61.5   58.7  30.036  0.00  0.00     0     0.00      0     0.0  0.00   0.0   0.026   0.000   73.7    60   58.9   74.3  10.98  .0734    0.001   213    5    100.0   10 
 7/21/19 10:10p   61.2   61.3   61.2    83   56.0   3.0   ENE   0.50   8.0   ENE   61.2   61.3   61.3   58.5  30.038  0.00  0.00     0     0.00      0     0.0  0.00   0.0   0.026   0.000   73.7    60   58.9   74.3  10.98  .0734    0.000   211    5    100.0   10 
 7/21/19 10:20p   61.1   61.2   61.1    83   55.9   3.0   ENE   0.50   7.0     E   61.1   61.2   61.2   58.4  30.039  0.00  0.00     0     0.00      0     0.0  0.00   0.0   0.027   0.000   73.8    60   59.0   74.4  10.97  .0734    0.000   211    5    100.0   10 
 7/21/19 10:30p   61.0   61.1   61.0    83   55.8   3.0   ENE   0.50   6.0     E   61.0   61.1   61.1   58.3  30.040  0.00  0.00     0     0.00      0     0.0  0.00   0.0   0.028   0.000   73.8    60   59.0   74.4  10.97  .0734    0.000   213    5    100.0   10 
 7/21/19 10:40p   61.0   61.0   61.0    83   55.8   3.0   ENE   0.50   8.0   ENE   61.0   61.1   61.1   58.3  30.041  0.00  0.00     0     0.00      0     0.0  0.00   0.0   0.028   0.000   73.8    60   59.0   74.4  10.97  .0734    0.000   214    5    100.0   10 
 7/21/19 10:50p   60.9   61.0   60.9    83   55.7   3.0   ENE   0.50   6.0   ENE   60.9   61.0   61.0   58.2  30.041  0.00  0.00     0     0.00      0     0.0  0.00   0.0   0.028   0.000   73.8    60   59.0   74.4  10.97  .0734    0.000   213    5    100.0   10 
 7/21/19 11:00p   60.8   60.9   60.8    83   55.6   2.0     E   0.33   7.0   ESE   60.8   60.9   60.9   58.1  30.039  0.00  0.00     0     0.00      0     0.0  0.00   0.0   0.029   0.000   73.8    60   59.0   74.4  10.97  .0734    0.001   213    5    100.0   10 
 7/21/19 11:10p   60.7   60.8   60.7    84   55.8   2.0   ENE   0.33   6.0     E   60.7   60.8   60.8   58.0  30.036  0.00  0.00     0     0.00      0     0.0  0.00   0.0   0.030   0.000   73.8    60   59.0   74.4  10.97  .0734    0.000   213    5    100.0   10 
 7/21/19 11:20p   60.5   60.7   60.5    84   55.6   2.0   ENE   0.33   5.0     E   60.5   60.6   60.6   57.8  30.037  0.00  0.00     0     0.00      0     0.0  0.00   0.0   0.031   0.000   73.8    59   58.6   74.3  10.80  .0734    0.000   212    5    100.0   10 
 7/21/19 11:30p   60.6   60.6   60.5    84   55.7   3.0     E   0.50   8.0   ENE   60.6   60.7   60.7   57.9  30.039  0.00  0.00     0     0.00      0     0.0  0.00   0.0   0.031   0.000   73.8    59   58.6   74.3  10.80  .0735    0.000   212    5    100.0   10 
 7/21/19 11:40p   60.5   60.6   60.5    84   55.6   2.0     E   0.33   5.0   ENE   60.5   60.6   60.6   57.8  30.038  0.00  0.00     0     0.00      0     0.0  0.00   0.0   0.031   0.000   73.8    59   58.6   74.3  10.80  .0735    0.000   213    5    100.0   10 
 7/21/19 11:50p   60.4   60.5   60.4    84   55.5   2.0   ENE   0.33   5.0   ENE   60.4   60.5   60.5   57.7  30.038  0.00  0.00     0     0.00      0     0.0  0.00   0.0   0.032   0.000   73.8    59   58.6   74.3  10.80  .0735    0.000   212    5    100.0   10 
 7/22/19 12:00a   60.2   60.4   60.2    84   55.3   2.0     E   0.33   5.0     E   60.2   60.3   60.3   57.5  30.039  0.00  0.00     0     0.00      0     0.0  0.00   0.0   0.033   0.000   73.8    59   58.6   74.3  10.80  .0735    0.001   214    5    100.0   10 
 7/22/19 12:10a   60.2   60.2   60.2    85   55.7   2.0     E   0.33   4.0    NE   60.2   60.3   60.3   57.5  30.037  0.00  0.00     0     0.00      0     0.0  0.00   0.0   0.033   0.000   73.8    59   58.6   74.3  10.80  .0734    0.000   209    5    100.0   10 
 7/22/19 12:20a   60.2   60.2   60.2    85   55.7   2.0   ENE   0.33   5.0    NE   60.2   60.3   60.3   57.5  30.039  0.00  0.00     0     0.00      0     0.0  0.00   0.0   0.033   0.000   73.8    59   58.6   74.3  10.80  .0735    0.000   211    5    100.0   10 
 7/22/19 12:30a   60.1   60.2   60.1    85   55.6   2.0   ENE   0.33   4.0   ENE   60.1   60.2   60.2   57.4  30.037  0.00  0.00     0     0.00      0     0.0  0.00   0.0   0.034   0.000   73.8    59   58.6   74.3  10.80  .0734    0.000   212    5    100.0   10 
 7/22/19 12:40a   59.9   60.1   59.9    85   55.4   1.0     E   0.17   4.0     E   59.9   60.0   60.0   57.2  30.041  0.00  0.00     0     0.00      0     0.0  0.00   0.0   0.035   0.000   73.9    59   58.7   74.5  10.79  .0734    0.000   211    5    100.0   10 
 7/22/19 12:50a   59.8   59.9   59.8    85   55.3   1.0   ENE   0.17   4.0     E   59.8   59.9   59.9   57.1  30.042  0.00  0.00     0     0.00      0     0.0  0.00   0.0   0.036   0.000   73.9    59   58.7   74.5  10.79  .0734    0.000   212    5    100.0   10 
 7/22/19  1:00a   59.9   59.9   59.8    85   55.4   2.0   ENE   0.33   6.0     E   59.9   60.0   60.0   57.2  30.043  0.00  0.00     0     0.00      0     0.0  0.00   0.0   0.035   0.000   73.8    59   58.6   74.3  10.80  .0735    0.001   213    5    100.0   10 
 7/22/19  1:10a   59.7   59.9   59.6    85   55.2   1.0     E   0.17   3.0     E   59.7   59.8   59.8   57.0  30.043  0.00  0.00     0     0.00      0     0.0  0.00   0.0   0.037   0.000   73.9    59   58.7   74.5  10.79  .0734    0.000   211    5    100.0   10 
 7/22/19  1:20a   59.5   59.6   59.4    86   55.3   1.0     E   0.17   2.0     E   59.5   59.6   59.6   56.8  30.042  0.00  0.00     0     0.00      0     0.0  0.00   0.0   0.038   0.000   73.8    59   58.6   74.3  10.80  .0735    0.000   212    5    100.0   10 
 7/22/19  1:30a   58.8   59.6   58.8    85   54.3   0.0     E   0.00   1.0     E   58.8   58.8   58.8   55.9  30.043  0.00  0.00     0     0.00      0     0.0  0.00   0.0   0.043   0.000   73.8    59   58.6   74.3  10.80  .0735    0.000   210    5    100.0   10 
 7/22/19  1:40a   58.1   58.8   58.1    85   53.6   0.0   ---   0.00   0.0   ---   58.1   58.0   58.0   55.1  30.041  0.00  0.00     0     0.00      0     0.0  0.00   0.0   0.048   0.000   73.8    59   58.6   74.3  10.80  .0735    0.000   212    5    100.0   10 
 7/22/19  1:50a   57.7   58.1   57.7    85   53.2   0.0   ---   0.00   0.0   ---   57.7   57.6   57.6   54.7  30.041  0.00  0.00     0     0.00      0     0.0  0.00   0.0   0.051   0.000   73.8    59   58.6   74.3  10.80  .0735    0.000   210    5    100.0   10 
 7/22/19  2:00a   57.4   57.7   57.4    85   52.9   0.0   ---   0.00   0.0   ---   57.4   57.3   57.3   54.3  30.042  0.00  0.00     0     0.00      0     0.0  0.00   0.0   0.053   0.000   73.8    59   58.6   74.3  10.80  .0735    0.000   213    5    100.0   10 
 7/22/19  2:10a   57.0   57.4   57.0    85   52.5   0.0   ---   0.00   0.0   ---   57.0   56.9   56.9   53.9  30.045  0.00  0.00     0     0.00      0     0.0  0.00   0.0   0.056   0.000   73.7    59   58.5   74.2  10.80  .0735    0.000   213    5    100.0   10 
 7/22/19  2:20a   56.7   57.0   56.7    86   52.6   0.0   ---   0.00   0.0   ---   56.7   56.6   56.6   53.6  30.042  0.00  0.00     0     0.00      0     0.0  0.00   0.0   0.058   0.000   73.7    59   58.5   74.2  10.80  .0735    0.000   211    5    100.0   10 
 7/22/19  2:30a   56.4   56.7   56.4    86   52.3   0.0   ---   0.00   0.0   ---   56.4   56.3   56.3   53.3  30.044  0.00  0.00     0     0.00      0     0.0  0.00   0.0   0.060   0.000   73.7    59   58.5   74.2  10.80  .0735    0.000   212    5    100.0   10 
 7/22/19  2:40a   56.2   56.4   56.2    86   52.1   0.0     E   0.00   1.0     E   56.2   56.1   56.1   53.1  30.046  0.00  0.00     0     0.00      0     0.0  0.00   0.0   0.061   0.000   73.7    59   58.5   74.2  10.80  .0735    0.000   213    5    100.0   10 
 7/22/19  2:50a   56.0   56.2   56.0    86   51.9   0.0     E   0.00   2.0     E   56.0   55.9   55.9   52.9  30.047  0.00  0.00     0     0.00      0     0.0  0.00   0.0   0.063   0.000   73.6    59   58.4   74.1  10.81  .0735    0.000   210    5    100.0   10 
 7/22/19  3:00a   55.7   56.1   55.7    86   51.6   0.0     E   0.00   2.0     E   55.7   55.6   55.6   52.6  30.047  0.00  0.00     0     0.00      0     0.0  0.00   0.0   0.065   0.000   73.6    59   58.4   74.1  10.81  .0735    0.000   212    5    100.0   10 
 7/22/19  3:10a   55.5   55.8   55.5    86   51.4   1.0     E   0.17   2.0     E   55.5   55.4   55.4   52.4  30.045  0.00  0.00     0     0.00      0     0.0  0.00   0.0   0.066   0.000   73.6    59   58.4   74.1  10.81  .0735    0.000   213    5    100.0   10 
 7/22/19  3:20a   55.4   55.6   55.4    86   51.3   1.0     E   0.17   2.0     E   55.4   55.3   55.3   52.3  30.042  0.00  0.00     0     0.00      0     0.0  0.00   0.0   0.067   0.000   73.5    58   57.8   73.9  10.61  .0735    0.000   211    5    100.0   10 
 7/22/19  3:30a   55.6   55.6   55.4    87   51.8   1.0     E   0.17   2.0     E   55.6   55.6   55.6   52.6  30.044  0.00  0.00     0     0.00      0     0.0  0.00   0.0   0.065   0.000   73.5    58   57.8   73.9  10.61  .0735    0.000   212    5    100.0   10 
 7/22/19  3:40a   55.3   55.5   55.2    87   51.5   1.0     E   0.17   3.0     E   55.3   55.3   55.3   52.3  30.043  0.00  0.00     0     0.00      0     0.0  0.00   0.0   0.067   0.000   73.4    58   57.7   73.7  10.61  .0736    0.000   213    5    100.0   10 
 7/22/19  3:50a   55.0   55.3   55.0    87   51.2   1.0     E   0.17   2.0     E   55.0   55.0   55.0   52.0  30.047  0.00  0.00     0     0.00      0     0.0  0.00   0.0   0.069   0.000   73.4    58   57.7   73.7  10.61  .0736    0.000   208    5    100.0   10 
 7/22/19  4:00a   54.9   55.0   54.9    87   51.1   0.0     E   0.00   2.0     E   54.9   54.9   54.9   51.9  30.047  0.00  0.00     0     0.00      0     0.0  0.00   0.0   0.070   0.000   73.3    58   57.6   73.6  10.62  .0736    0.000   211    5    100.0   10 
 7/22/19  4:10a   54.7   54.9   54.6    87   50.9   1.0     E   0.17   3.0     E   54.7   54.7   54.7   51.6  30.047  0.00  0.00     0     0.00      0     0.0  0.00   0.0   0.072   0.000   73.3    58   57.6   73.6  10.62  .0736    0.000   213    5    100.0   10 
 7/22/19  4:20a   55.2   55.2   54.6    88   51.7   1.0     E   0.17   2.0     E   55.2   55.2   55.2   52.2  30.049  0.00  0.00     0     0.00      0     0.0  0.00   0.0   0.068   0.000   73.3    58   57.6   73.6  10.62  .0736    0.000   214    5    100.0   10 
 7/22/19  4:30a   55.9   55.9   55.2    88   52.4   1.0     E   0.17   2.0     E   55.9   55.9   55.9   52.9  30.050  0.00  0.00     0     0.00      0     0.0  0.00   0.0   0.063   0.000   73.2    58   57.5   73.5  10.62  .0736    0.000   212    5    100.0   10 
 7/22/19  4:40a   55.0   55.9   55.0    87   51.2   1.0     E   0.17   3.0     E   55.0   55.0   55.0   52.0  30.053  0.00  0.00     0     0.00      0     0.0  0.00   0.0   0.069   0.000   73.1    58   57.4   73.4  10.63  .0736    0.000   208    5    100.0   10 
 7/22/19  4:50a   54.5   55.0   54.5    87   50.7   1.0     E   0.17   3.0     E   54.5   54.5   54.5   51.4  30.052  0.00  0.00     0     0.00      0     0.0  0.00   0.0   0.073   0.000   73.1    58   57.4   73.4  10.63  .0736    0.000   212    5    100.0   10 
 7/22/19  5:00a   54.6   54.7   54.5    87   50.8   1.0     E   0.17   3.0     E   54.6   54.6   54.6   51.5  30.052  0.00  0.00     0     0.00      0     0.0  0.00   0.0   0.072   0.000   73.1    58   57.4   73.4  10.63  .0736    0.000   213    5    100.0   10 
 7/22/19  5:10a   54.0   54.6   54.0    87   50.2   2.0     E   0.33   3.0     E   54.0   54.0   54.0   50.9  30.054  0.00  0.00     0     0.00      0     0.0  0.00   0.0   0.076   0.000   73.0    58   57.3   73.2  10.63  .0737    0.000   213    5    100.0   10 
 7/22/19  5:20a   54.0   54.1   53.9    87   50.2   2.0     E   0.33   3.0     E   54.0   54.0   54.0   50.9  30.053  0.00  0.00     0     0.00      0     0.0  0.00   0.0   0.076   0.000   73.0    58   57.3   73.2  10.63  .0737    0.000   214    5    100.0   10 
 7/22/19  5:30a   54.1   54.1   53.9    88   50.6   2.0     E   0.33   2.0     E   54.1   54.1   54.1   51.0  30.055  0.00  0.00     0     0.00      0     0.0  0.00   0.0   0.076   0.000   72.9    58   57.3   73.1  10.63  .0737    0.000   210    5    100.0   10 
 7/22/19  5:40a   54.0   54.1   54.0    88   50.5   2.0     E   0.33   3.0     E   54.0   54.0   54.0   50.9  30.057  0.00  0.00     0     0.00      0     0.0  0.00   0.0   0.076   0.000   72.9    58   57.3   73.1  10.63  .0737    0.000   213    5    100.0   10 
 7/22/19  5:50a   54.3   54.3   54.0    88   50.8   1.0     E   0.17   3.0     E   54.3   54.3   54.3   51.2  30.057  0.00  0.00     0     0.00      0     0.0  0.00   0.0   0.074   0.000   72.8    58   57.2   72.9  10.64  .0737    0.000   214    5    100.0   10 
 7/22/19  6:00a   54.6   54.6   54.3    89   51.4   1.0     E   0.17   2.0     E   54.6   54.7   54.7   51.8  30.059  0.00  0.00     4     0.06      5     0.0  0.00   0.0   0.072   0.000   72.8    58   57.2   72.9  10.64  .0737    0.000   212    5    100.0   10 
 7/22/19  6:10a   54.7   54.7   54.6    88   51.2   2.0     E   0.33   3.0     E   54.7   54.7   54.7   51.9  30.063  0.00  0.00     8     0.11     12     0.0  0.00   0.0   0.072   0.000   72.7    58   57.1   72.8  10.64  .0737    0.000   211    5    100.0   10 
 7/22/19  6:20a   54.8   54.8   54.6    88   51.3   1.0     E   0.17   3.0     E   54.8   54.8   54.8   52.2  30.066  0.00  0.00    17     0.24     21     0.0  0.00   0.0   0.071   0.000   72.7    58   57.1   72.8  10.64  .0737    0.000   214    5    100.0   10 
 7/22/19  6:30a   55.1   55.1   54.8    88   51.6   0.0   ---   0.00   0.0   ---   55.1   55.1   55.1   52.7  30.069  0.00  0.00    28     0.40     32     0.0  0.00   0.0   0.069   0.000   72.7    57   56.6   72.7  10.44  .0738    0.000   213    5    100.0   10 
 7/22/19  6:40a   55.5   55.5   55.1    89   52.3   0.0   ---   0.00   0.0   ---   55.5   55.6   55.6   53.5  30.070  0.00  0.00    40     0.57     47     0.0  0.00   0.0   0.066   0.000   72.6    57   56.5   72.6  10.45  .0738    0.000   209    5    100.0   10 
 7/22/19  6:50a   55.9   55.9   55.5    89   52.7   0.0   ---   0.00   0.0   ---   55.9   56.0   56.0   56.7  30.071  0.00  0.00    55     0.79     67     0.0  0.00   0.0   0.063   0.000   72.6    57   56.5   72.6  10.45  .0738    0.000   213    5    100.0   10 
 7/22/19  7:00a   55.9   56.1   55.9    88   52.4   0.0     N   0.00   3.0   NNW   55.9   55.9   55.9   57.5  30.076  0.00  0.00    77     1.10     81     0.0  0.00   0.0   0.063   0.000   72.6    57   56.5   72.6  10.45  .0738    0.001   212    5    100.0   10 
 7/22/19  7:10a   56.0   56.0   55.7    89   52.8   0.0    NE   0.00   2.0    NE   56.0   56.1   56.1   57.9  30.076  0.00  0.00    84     1.20     90     0.0  0.00   0.0   0.063   0.000   72.6    57   56.5   72.6  10.45  .0738    0.000   212    5    100.0   10 
 7/22/19  7:20a   56.5   56.5   56.0    89   53.3   0.0    NE   0.00   1.0    NE   56.5   56.6   56.6   58.6  30.077  0.00  0.00    90     1.29     97     0.0  0.00   0.0   0.059   0.000   72.6    57   56.5   72.6  10.45  .0738    0.000   212    5    100.0   10 
 7/22/19  7:30a   56.5   56.7   56.5    88   53.0   0.0   ---   0.00   0.0   ---   56.5   56.5   56.5   59.1  30.078  0.00  0.00   107     1.53    113     0.0  0.00   0.0   0.059   0.000   72.6    57   56.5   72.6  10.45  .0738    0.000   211    5    100.0   10 
 7/22/19  7:40a   56.3   56.5   56.3    88   52.8   0.0    NE   0.00   2.0    NE   56.3   56.3   56.3   59.3  30.081  0.00  0.00   121     1.73    137     0.0  0.00   0.0   0.060   0.000   72.6    57   56.5   72.6  10.45  .0738    0.000   212    5    100.0   10 
 7/22/19  7:50a   56.7   56.7   56.3    89   53.5   0.0    NE   0.00   2.0    NE   56.7   56.8   56.8   60.2  30.082  0.00  0.00   136     1.95    178     0.0  0.00   0.0   0.058   0.000   72.6    57   56.5   72.6  10.45  .0738    0.000   214    5    100.0   10 
 7/22/19  8:00a   56.4   56.8   56.4    88   52.9   1.0     W   0.17   2.0    NE   56.4   56.4   56.4   60.7  30.083  0.00  0.00   169     2.42    192     0.0  0.00   0.0   0.060   0.000   72.6    57   56.5   72.6  10.45  .0738    0.003   212    5    100.0   10 
 7/22/19  8:10a   56.3   56.7   56.3    88   52.8   1.0     W   0.17   3.0    SW   56.3   56.3   56.3   61.3  30.087  0.00  0.00   196     2.81    272     0.0  0.00   0.0   0.060   0.000   72.6    57   56.5   72.6  10.45  .0738    0.000   209    5    100.0   10 
 7/22/19  8:20a   55.0   56.3   55.0    88   51.5   2.0    SW   0.33   3.0    SW   55.0   55.0   55.0   62.5  30.089  0.00  0.00   292     4.19    411     0.0  0.00   0.0   0.069   0.000   72.6    57   56.5   72.6  10.45  .0738    0.000   213    5    100.0   10 
 7/22/19  8:30a   55.5   55.5   55.0    88   52.0   2.0     S   0.33   4.0     S   55.5   55.5   55.5   64.5  30.089  0.00  0.00   371     5.32    483     0.0  0.00   0.0   0.066   0.000   72.7    57   56.6   72.7  10.44  .0738    0.000   212    5    100.0   10 
 7/22/19  8:40a   55.4   55.5   55.4    87   51.6   2.0     S   0.33   5.0     S   55.4   55.4   55.4   63.6  30.091  0.00  0.00   341     4.89    469     0.0  0.00   0.0   0.067   0.000   72.7    57   56.6   72.7  10.44  .0738    0.000   213    5    100.0   10 
 7/22/19  8:50a   55.3   55.4   55.2    88   51.8   2.0     S   0.33   3.0     S   55.3   55.3   55.3   63.9  30.094  0.00  0.00   370     5.30    564     0.0  0.00   0.0   0.067   0.000   72.7    57   56.6   72.7  10.44  .0738    0.000   213    5    100.0   10 
 7/22/19  9:00a   55.2   55.4   55.2    87   51.4   3.0   SSW   0.50   4.0   SSW   55.2   55.2   55.2   64.1  30.096  0.00  0.00   397     5.69    652     0.0  0.00   0.0   0.068   0.000   72.7    57   56.6   72.7  10.44  .0738    0.007   212    5    100.0   10 
 7/22/19  9:10a   55.2   55.2   55.1    88   51.7   2.0   SSW   0.33   4.0   SSW   55.2   55.2   55.2   61.8  30.099  0.00  0.00   300     4.30    311     0.0  0.00   0.0   0.068   0.000   72.7    57   56.6   72.7  10.44  .0738    0.000   212    5    100.0   10 
 7/22/19  9:20a   55.7   55.7   55.2    88   52.2   3.0   SSW   0.50   5.0   SSE   55.7   55.7   55.7   63.0  30.100  0.00  0.00   338     4.85    448     0.0  0.00   0.0   0.065   0.000   72.8    57   56.7   72.9  10.44  .0738    0.000   213    5    100.0   10 
 7/22/19  9:30a   55.8   55.9   55.7    88   52.3   3.0   SSW   0.50   5.0   SSE   55.8   55.8   55.8   63.9  30.100  0.00  0.00   388     5.56    492     0.0  0.00   0.0   0.064   0.000   72.8    57   56.7   72.9  10.44  .0738    0.000   213    5    100.0   10 
 7/22/19  9:40a   55.8   55.9   55.7    88   52.3   3.0     S   0.50   5.0     S   55.8   55.8   55.8   64.8  30.099  0.00  0.00   448     6.42    886     0.0  0.00   0.0   0.064   0.000   72.9    57   56.8   73.0  10.43  .0738    0.000   211    5    100.0   10 
 7/22/19  9:50a   55.8   55.8   55.6    88   52.3   2.0     S   0.33   5.0    SW   55.8   55.8   55.8   63.7  30.101  0.00  0.00   397     5.69    485     0.0  0.00   0.0   0.064   0.000   72.9    57   56.8   73.0  10.43  .0738    0.000   213    5    100.0   10 
 7/22/19 10:00a   55.4   56.2   55.4    87   51.6   3.0   SSW   0.50   5.0   WSW   55.4   55.4   55.4   61.1  30.101  0.00  0.00   298     4.27    359     0.0  0.00   0.0   0.067   0.000   72.9    57   56.8   73.0  10.43  .0738    0.008   211    5    100.0   10 
 7/22/19 10:10a   55.4   55.4   55.3    88   51.9   3.0   SSW   0.50   5.0   SSW   55.4   55.4   55.4   66.1  30.103  0.00  0.00   678     9.72    686     0.0  0.00   0.0   0.067   0.000   73.0    57   56.9   73.2  10.43  .0738    0.000   211    5    100.0   10 
 7/22/19 10:20a   56.1   56.2   55.4    88   52.6   3.0   SSW   0.50   5.0   SSW   56.1   56.1   56.1   66.9  30.102  0.00  0.00   696     9.98    703     0.0  0.00   0.0   0.062   0.000   73.0    57   56.9   73.2  10.43  .0738    0.000   212    5    100.0   10 
 7/22/19 10:30a   55.1   56.1   55.1    88   51.6   3.0    SW   0.50   5.0   SSE   55.1   55.1   55.1   65.9  30.104  0.00  0.00   710    10.18    717     0.0  0.00   0.0   0.069   0.000   73.0    57   56.9   73.2  10.43  .0738    0.000   210    5    100.0   10 
 7/22/19 10:40a   55.9   55.9   55.1    89   52.7   3.0   SSW   0.50   5.0   SSW   55.9   56.0   56.0   66.8  30.106  0.00  0.00   729    10.45    737     0.0  0.00   0.0   0.063   0.000   73.1    57   57.0   73.3  10.43  .0738    0.000   212    5    100.0   10 
 7/22/19 10:50a   55.7   55.9   55.6    88   52.2   3.0   SSW   0.50   5.0   SSW   55.7   55.7   55.7   66.6  30.109  0.00  0.00   747    10.71    754     0.0  0.00   0.0   0.065   0.000   73.1    57   57.0   73.3  10.43  .0738    0.000   214    5    100.0   10 
 7/22/19 11:00a   56.0   56.1   55.7    89   52.8   3.0   SSW   0.50   4.0    SW   56.0   56.1   56.1   67.0  30.111  0.00  0.00   768    11.01    777     0.0  0.00   0.0   0.063   0.000   73.1    57   57.0   73.3  10.43  .0738    0.014   212    5    100.0   10 
 7/22/19 11:10a   56.2   56.3   56.0    88   52.7   3.0   SSW   0.50   5.0   SSW   56.2   56.2   56.2   67.1  30.113  0.00  0.00   789    11.31    796     0.0  0.00   0.0   0.061   0.000   73.2    57   57.1   73.4  10.42  .0738    0.000   212    5    100.0   10 
 7/22/19 11:20a   56.5   56.5   56.2    88   53.0   2.0   SSW   0.33   4.0    SW   56.5   56.5   56.5   67.3  30.117  0.00  0.00   808    11.58    816     0.0  0.00   0.0   0.059   0.000   73.2    57   57.1   73.4  10.42  .0738    0.000   213    5    100.0   10 
 7/22/19 11:30a   56.5   56.6   56.2    88   53.0   2.0    SW   0.33   4.0    SW   56.5   56.5   56.5   67.3  30.118  0.00  0.00   825    11.83    833     0.0  0.00   0.0   0.059   0.000   73.3    57   57.1   73.5  10.42  .0738    0.000   213    5    100.0   10 
 7/22/19 11:40a   56.6   56.6   56.4    88   53.1   2.0   SSW   0.33   3.0   SSW   56.6   56.6   56.6   67.4  30.116  0.00  0.00   841    12.06    849     0.0  0.00   0.0   0.058   0.000   73.3    57   57.1   73.5  10.42  .0738    0.000   212    5    100.0   10 
 7/22/19 11:50a   57.6   57.6   56.5    88   54.1   2.0   SSW   0.33   3.0   SSW   57.6   57.6   57.6   68.4  30.115  0.00  0.00   856    12.27    863     0.0  0.00   0.0   0.051   0.000   73.4    57   57.2   73.7  10.41  .0738    0.000   212    5    100.0   10 
 7/22/19 12:00p   58.3   58.3   57.6    88   54.8   2.0   SSW   0.33   3.0   SSW   58.3   58.3   58.3   69.1  30.117  0.00  0.00   870    12.47    875     0.0  0.00   0.0   0.047   0.000   73.4    57   57.2   73.7  10.41  .0738    0.017   212    5    100.0   10 
 7/22/19 12:10p   59.7   59.7   58.3    88   56.1   1.0   SSW   0.17   2.0   SSW   59.7   59.9   59.9   70.7  30.118  0.00  0.00   884    12.67    891     0.0  0.00   0.0   0.037   0.000   73.5    57   57.3   73.8  10.41  .0737    0.000   211    5    100.0   10 
 7/22/19 12:20p   59.8   60.0   59.7    86   55.6   2.0   SSW   0.33   3.0   SSW   59.8   59.9   59.9   70.6  30.123  0.00  0.00   894    12.82    898     0.0  0.00   0.0   0.036   0.000   73.5    57   57.3   73.8  10.41  .0738    0.000   212    5    100.0   10 
 7/22/19 12:30p   60.1   60.2   59.8    86   55.9   2.0   SSW   0.33   3.0   SSW   60.1   60.2   60.2   70.8  30.122  0.00  0.00   904    12.96    909     0.0  0.00   0.0   0.034   0.000   73.6    57   57.4   73.9  10.41  .0737    0.000   212    5    100.0   10 
 7/22/19 12:40p   60.5   60.5   59.9    86   56.3   2.0     W   0.33   4.0   WSW   60.5   60.7   60.7   71.3  30.122  0.00  0.00   912    13.07    916     0.0  0.00   0.0   0.031   0.000   73.6    57   57.4   73.9  10.41  .0737    0.000   213    5    100.0   10 
 7/22/19 12:50p   61.0   61.0   60.5    86   56.8   2.0    NW   0.33   4.0   WNW   61.0   61.2   61.2   71.7  30.118  0.00  0.00   918    13.16    921     0.0  0.00   0.0   0.028   0.000   73.7    58   58.0   74.1  10.60  .0737    0.000   212    5    100.0   10 
 7/22/19  1:00p   62.9   62.9   61.1    87   59.0   3.0    NW   0.50   4.0   NNW   62.9   63.5   63.5   74.1  30.117  0.00  0.00   923    13.23    926     0.0  0.00   0.0   0.015   0.000   73.8    58   58.1   74.2  10.60  .0737    0.019   213    5    100.0   10 
 7/22/19  1:10p   63.7   63.7   62.9    85   59.1   3.0   NNW   0.50   5.0   NNW   63.7   64.3   64.3   74.9  30.115  0.00  0.00   926    13.27    928     0.0  0.00   0.0   0.009   0.000   73.8    58   58.1   74.2  10.60  .0737    0.000   214    5    100.0   10 
 7/22/19  1:20p   64.7   64.7   63.7    84   59.8   3.0   NNE   0.50   5.0   NNE   64.7   65.4   65.4   75.8  30.116  0.00  0.00   929    13.32    932     0.0  0.00   0.0   0.002   0.000   73.9    58   58.2   74.4  10.59  .0736    0.000   211    5    100.0   10 
 7/22/19  1:30p   64.9   65.3   64.7    82   59.3   4.0   NNE   0.67   7.0     N   64.9   65.6   65.6   75.9  30.117  0.00  0.00   930    13.33    933     0.0  0.00   0.0   0.001   0.000   73.9    58   58.2   74.4  10.59  .0737    0.000   211    5    100.0   10 
 7/22/19  1:40p   64.6   64.9   64.3    83   59.3   4.0     N   0.67   7.0   NNE   64.6   65.3   65.3   75.4  30.113  0.00  0.00   931    13.35    933     0.0  0.00   0.0   0.003   0.000   74.0    58   58.3   74.5  10.59  .0736    0.000   212    5    100.0   10 
 7/22/19  1:50p   64.7   65.3   64.7    82   59.1   4.0     N   0.67   7.0   NNE   64.7   65.4   65.4   75.2  30.115  0.00  0.00   929    13.32    932     0.0  0.00   0.0   0.002   0.000   74.0    58   58.3   74.5  10.59  .0736    0.000   211    5    100.0   10 
 7/22/19  2:00p   65.4   65.4   64.7    81   59.4   4.0   NNE   0.67   6.0   ENE   65.4   66.2   66.2   76.0  30.115  0.00  0.00   926    13.27    928     0.0  0.00   0.0   0.000   0.003   74.0    58   58.3   74.5  10.59  .0736    0.021   212    5    100.0   10 
 7/22/19  2:10p   65.5   65.6   65.4    81   59.5   4.0     N   0.67   6.0   NNE   65.5   66.3   66.3   76.2  30.119  0.00  0.00   920    13.19    925     0.0  0.00   0.0   0.000   0.003   74.1    58   58.4   74.6  10.59  .0736    0.000   214    5    100.0   10 
 7/22/19  2:20p   65.5   65.5   65.2    81   59.5   4.0     N   0.67   6.0     N   65.5   66.3   66.3   76.2  30.121  0.00  0.00   913    13.09    918     0.0  0.00   0.0   0.000   0.003   74.1    58   58.4   74.6  10.59  .0736    0.000   211    5    100.0   10 
 7/22/19  2:30p   65.7   65.7   65.5    80   59.4   4.0   NNE   0.67   8.0   NNE   65.7   66.5   66.5   76.5  30.122  0.00  0.00   905    12.97    911     0.0  0.00   0.0   0.000   0.005   74.2    58   58.5   74.7  10.58  .0736    0.000   212    5    100.0   10 
 7/22/19  2:40p   65.7   66.1   65.7    78   58.7   5.0   NNE   0.83   7.0   NNE   65.7   66.4   66.4   76.4  30.121  0.00  0.00   894    12.82    900     0.0  0.00   0.0   0.000   0.005   74.2    58   58.5   74.7  10.58  .0736    0.000   213    5    100.0   10 
 7/22/19  2:50p   65.6   65.7   65.4    80   59.3   5.0   NNE   0.83   8.0   NNE   65.6   66.4   66.4   76.5  30.120  0.00  0.00   884    12.67    888     0.0  0.00   0.0   0.000   0.004   74.2    58   58.5   74.7  10.58  .0736    0.000   212    5    100.0   10 
 7/22/19  3:00p   65.6   65.7   65.5    79   58.9   5.0   NNE   0.83   8.0   NNE   65.6   66.3   66.3   76.5  30.119  0.00  0.00   872    12.50    879     0.0  0.00   0.0   0.000   0.004   74.3    58   58.6   74.9  10.58  .0736    0.020   211    5    100.0   10 
 7/22/19  3:10p   66.3   66.3   65.6    79   59.6   5.0     N   0.83   9.0   NNE   66.3   67.2   67.2   77.5  30.119  0.00  0.00   859    12.31    865     0.0  0.00   0.0   0.000   0.009   74.2    59   58.9   74.8  10.78  .0736    0.000   213    5    100.0   10 
 7/22/19  3:20p   68.3   68.3   66.3    76   60.4   5.0    NE   0.83   9.0    NE   68.3   69.3   69.3   79.7  30.116  0.00  0.00   846    12.13    851     0.0  0.00   0.0   0.000   0.023   74.2    59   58.9   74.8  10.78  .0736    0.000   213    5    100.0   10 
 7/22/19  3:30p   69.0   69.0   68.3    73   60.0   6.0    NE   1.00  10.0   ENE   69.0   69.8   69.8   80.2  30.115  0.00  0.00   828    11.87    835     0.0  0.00   0.0   0.000   0.028   74.0    59   58.8   74.6  10.79  .0736    0.000   213    5    100.0   10 
 7/22/19  3:40p   69.2   69.4   68.9    70   59.0   5.0    NE   0.83  10.0    NE   69.2   69.5   69.5   79.9  30.116  0.00  0.00   810    11.61    819     0.0  0.00   0.0   0.000   0.029   73.9    59   58.7   74.5  10.79  .0736    0.000   214    5    100.0   10 
 7/22/19  3:50p   69.8   69.9   69.3    70   59.6   5.0    NE   0.83   9.0   ENE   69.8   70.0   70.0   80.5  30.117  0.00  0.00   791    11.34    796     0.0  0.00   0.0   0.000   0.033   73.9    59   58.7   74.5  10.79  .0736    0.000   212    5    100.0   10 
 7/22/19  4:00p   70.6   70.6   69.9    68   59.5   5.0    NE   0.83   9.0   ENE   70.6   70.7   70.7   81.3  30.120  0.00  0.00   772    11.07    782     0.0  0.00   0.0   0.000   0.039   73.9    59   58.7   74.5  10.79  .0736    0.020   210    5    100.0   10 
 7/22/19  4:10p   69.9   70.6   69.9    67   58.4   6.0    NE   1.00  10.0    NE   69.9   69.8   69.8   80.4  30.121  0.00  0.00   751    10.77    761     0.0  0.00   0.0   0.000   0.034   73.9    59   58.7   74.5  10.79  .0736    0.000   213    5    100.0   10 
 7/22/19  4:20p   69.5   69.9   69.4    68   58.5   6.0    NE   1.00  10.0   NNE   69.5   69.6   69.6   80.2  30.120  0.00  0.00   730    10.46    738     0.0  0.00   0.0   0.000   0.031   73.9    59   58.7   74.5  10.79  .0736    0.000   212    5    100.0   10 
 7/22/19  4:30p   69.8   69.8   69.5    69   59.2   7.0    NE   1.17  11.0    NE   69.8   69.9   69.9   80.4  30.119  0.00  0.00   707    10.13    719     0.0  0.00   0.0   0.000   0.033   73.8    59   58.6   74.3  10.80  .0737    0.000   213    5    100.0   10 
 7/22/19  4:40p   69.8   69.9   69.7    68   58.8   8.0    NE   1.33  11.0    NE   69.3   69.8   69.3   79.4  30.117  0.00  0.00   684     9.81    694     0.0  0.00   0.0   0.000   0.033   73.8    59   58.6   74.3  10.80  .0736    0.000   213    5    100.0   10 
 7/22/19  4:50p   70.0   70.0   69.7    68   59.0   7.0    NE   1.17  11.0    NE   70.0   69.9   69.9   80.5  30.118  0.00  0.00   660     9.46    670     0.0  0.00   0.0   0.000   0.035   73.8    59   58.6   74.3  10.80  .0736    0.000   212    5    100.0   10 
 7/22/19  5:00p   70.0   70.1   69.9    68   59.0   8.0    NE   1.33  11.0    NE   69.5   69.9   69.4   79.5  30.117  0.00  0.00   635     9.10    647     0.0  0.00   0.0   0.000   0.035   73.9    59   58.7   74.5  10.79  .0736    0.018   211    5    100.0   10 
 7/22/19  5:10p   70.1   70.1   69.9    68   59.0   7.0    NE   1.17  11.0    NE   70.1   70.1   70.1   80.8  30.111  0.00  0.00   609     8.73    621     0.0  0.00   0.0   0.000   0.035   74.0    59   58.8   74.6  10.79  .0736    0.000   212    5    100.0   10 
 7/22/19  5:20p   70.2   70.4   70.1    68   59.1   8.0    NE   1.33  12.0    NE   69.7   70.2   69.7   79.9  30.110  0.00  0.00   583     8.36    596     0.0  0.00   0.0   0.000   0.036   74.2    59   58.9   74.8  10.78  .0736    0.000   210    5    100.0   10 
 7/22/19  5:30p   70.2   70.2   70.0    68   59.1   7.0    NE   1.17  11.0   NNE   70.2   70.2   70.2   80.9  30.109  0.00  0.00   557     7.98    570     0.0  0.00   0.0   0.000   0.036   74.3    59   59.0   75.0  10.78  .0735    0.000   213    5    100.0   10 
 7/22/19  5:40p   70.5   70.5   70.2    67   59.0   6.0    NE   1.00  11.0   NNE   70.5   70.5   70.5   81.3  30.109  0.00  0.00   529     7.58    541     0.0  0.00   0.0   0.000   0.038   74.5    59   59.2   75.2  10.77  .0735    0.000   213    5    100.0   10 
 7/22/19  5:50p   70.0   70.5   70.0    67   58.5   7.0    NE   1.17  12.0    NE   70.0   69.9   69.9   80.4  30.107  0.00  0.00   503     7.21    515     0.0  0.00   0.0   0.000   0.035   74.5    59   59.2   75.2  10.77  .0735    0.000   213    5    100.0   10 
Email: AdamSPAM@StormwatchersRetreat.com (To send me email remove the word 'SPAM' from my email address.)